Terminal Aerodrome Forecast
Issued by NWS La Crosse, WI

Home | Current Version | Previous Version | Text Only | Print | Product List | Glossary On
Versions: 1 2 3 4 5 6 7 8 9 10 11 12 13 14 15 16 17 18 19 20 21 22 23 24 25 26 27 28
000
FTUS43 KARX 290520
TAFLSE
TAF
KLSE 290520Z 2906/3006 17014KT P6SM SCT150 WS015/19045KT
     FM291100 18018KT P6SM -RA BKN035 WS015/19050KT
     FM291400 21017G26KT P6SM BKN025
     FM291800 29020G30KT P6SM BKN035
     FM300100 30015G24KT P6SM SCT040=

USA.gov is the U.S. government's official web portal to all federal, state and local government web resources and services.